Monday, July 23, 2018, 11:30 AM EDT
Back to Local

KNEL, Lakehurst Naval Air Station

Location: Lakehurst, NJ, United States Lat: 40.033
Local Time: 11:30 AM EDT (15:30 GMT) Lon: -74.317
Time Zone: US/Eastern Elev: 101 ft

Show me the last for .
Show Decoded

2018-07-23 11:00 METAR KNEL 231500Z 16012KT 10SM BKN019 OVC025 27/24 A3009 RMK AO2 SLPNO 6////
                 T02720244 51006 PNO $ =
2018-07-23 10:00 METAR KNEL 231400Z 16010KT 10SM BKN016 BKN023 OVC050 26/24 A3007 RMK AO2 SLPNO
                 T02560239 PNO $ =
2018-07-23 09:00 METAR KNEL 231300Z 15007KT 10SM SCT023 BKN028 OVC037 24/24 A3007 RMK AO2 SLPNO
                 T02440239 PNO =
2018-07-23 08:55 METAR KNEL 231255Z 15007KT 10SM SCT023 BKN028 OVC034 24/24 A3007 =
2018-07-23 08:00 METAR KNEL 231200Z 15006KT 9SM SCT008 SCT037 BKN044 23/23 A3006 RMK AO2 SLPNO
                 6//// 7//// T02330233 53010 PNO =
2018-07-23 07:57 METAR KNEL 231157Z 15006KT 9SM SCT008 BKN041 23/23 A3006 =
2018-07-23 07:00 METAR KNEL 231100Z AUTO 7SM OVC007 A3003 RMK AO2 CIG 005V009 SLPNO PNO =
2018-07-23 06:35 METAR KNEL 231035Z AUTO 7SM OVC008 A3003 =
2018-07-23 06:06 METAR KNEL 231006Z AUTO 7SM BKN011 OVC036 A3003 RMK AO2 SLPNO PNO =
2018-07-23 06:00 METAR KNEL 231000Z AUTO 4SM FEW007 BKN011 OVC031 A3002 RMK AO2 PNO =
2018-07-23 05:56 METAR KNEL 230956Z AUTO 2SM SCT007 BKN013 OVC031 A3002 =
2018-07-23 05:45 METAR KNEL 230945Z AUTO 1 1/2SM FEW006 SCT012 OVC031 A3001 RMK AO2 PNO =
2018-07-23 05:30 METAR KNEL 230930Z AUTO 1 3/4SM SCT008 OVC013 A3001 RMK AO2 VIS 1V5 PNO =
2018-07-23 05:26 METAR KNEL 230926Z AUTO 2 1/2SM BKN010 OVC013 A3001 RMK AO2 VIS 1V5 PNO =
2018-07-23 05:00 METAR KNEL 230900Z AUTO 3SM BKN007 OVC011 A3000 RMK AO2 SLPNO 6//// 56007 PNO =
2018-07-23 04:00 METAR KNEL 230800Z AUTO 7SM OVC008 A2998 RMK AO2 SLPNO PNO =
2018-07-23 03:58 METAR KNEL 230758Z AUTO 7SM BKN008 OVC012 A2998 RMK AO2 PNO =
2018-07-23 03:00 METAR KNEL 230700Z AUTO 8SM OVC010 A2998 RMK AO2 SLPNO PNO =
2018-07-23 02:00 METAR KNEL 230600Z AUTO 8SM OVC010 A3000 RMK AO2 SLPNO 6//// 50003 PNO =
2018-07-23 01:00 METAR KNEL 230500Z AUTO 8SM OVC011 A3000 RMK AO2 SLPNO PNO =
2018-07-23 00:15 METAR KNEL 230415Z AUTO 8SM BKN014 BKN019 OVC065 A3000 RMK AO2 PNO =
2018-07-23 00:00 METAR KNEL 230400Z AUTO 8SM SCT016 BKN030 OVC041 A3001 RMK AO2 SLPNO PNO =
2018-07-22 23:48 METAR KNEL 230348Z AUTO 8SM SCT014 OVC033 A3000 RMK AO2 PNO =
2018-07-22 23:00 METAR KNEL 230300Z AUTO 8SM OVC014 A3000 RMK AO2 SLPNO 6//// 53017 PNO =
2018-07-22 22:00 METAR KNEL 230200Z AUTO 7SM OVC014 A2999 RMK AO2 SLPNO PNO =
2018-07-22 21:45 METAR KNEL 230145Z AUTO 7SM OVC012 A2999 RMK AO2 PNO =
2018-07-22 21:09 METAR KNEL 230109Z AUTO 6SM OVC009 A2997 RMK AO2 CIG 007V013 PNO =
2018-07-22 21:00 METAR KNEL 230100Z AUTO 6SM OVC010 A2997 RMK AO2 CIG 007V013 SLPNO PNO =
2018-07-22 20:39 METAR KNEL 230039Z AUTO 6SM OVC010 A2996 RMK AO2 CIG 006V013 PNO =
2018-07-22 20:00 METAR KNEL 230000Z AUTO 4SM OVC009 A2995 RMK AO2 SLPNO 6//// 53007 PNO =
2018-07-22 19:46 METAR KNEL 222346Z AUTO 6SM OVC009 A2995 RMK AO2 CIG 008V012 PNO =
2018-07-22 19:00 METAR KNEL 222300Z AUTO 5SM OVC010 A2994 RMK AO2 SLPNO PNO =
2018-07-22 18:07 METAR KNEL 222207Z AUTO 9SM OVC014 A2993 RMK AO2 PNO =
2018-07-22 18:00 METAR KNEL 222200Z AUTO 9SM OVC016 A2993 RMK AO2 SLPNO PNO =
2018-07-22 17:00 METAR KNEL 222100Z AUTO 7SM OVC015 A2992 RMK AO2 SLPNO 6//// 55000 PNO =
2018-07-22 16:24 METAR KNEL 222024Z AUTO 9SM BKN013 BKN021 A2992 RMK AO2 PNO =
2018-07-22 16:00 METAR KNEL 222000Z AUTO 7SM BKN018 BKN024 BKN035 A2991 RMK AO2 SLPNO PNO =
2018-07-22 15:38 METAR KNEL 221938Z AUTO 9SM BKN016 BKN021 BKN026 A2990 RMK AO2 PNO =
2018-07-22 15:00 METAR KNEL 221900Z AUTO 9SM OVC014 A2991 RMK AO2 SLPNO PNO =
2018-07-22 14:35 METAR KNEL 221835Z AUTO 8SM BKN012 BKN018 OVC026 A2992 =
2018-07-22 14:09 METAR KNEL 221809Z AUTO 7SM FEW016 BKN022 BKN027 A2992 RMK AO2 PNO =
2018-07-22 14:00 METAR KNEL 221800Z AUTO 10SM FEW018 SCT024 BKN033 A2992 RMK AO2 PNO =
2018-07-22 13:30 METAR KNEL 221730Z AUTO 10SM BKN028 BKN037 A2993 RMK AO2 PNO =
2018-07-22 13:00 METAR KNEL 221700Z AUTO 10SM SCT024 SCT030 A2993 RMK AO2 SLPNO PNO =
2018-07-22 12:58 METAR KNEL 221658Z AUTO 10SM SCT024 A2993 =
2018-07-22 12:20 METAR KNEL 221620Z AUTO 10SM BKN025 BKN030 BKN035 A2992 RMK AO2 PNO =
2018-07-22 12:00 METAR KNEL 221600Z AUTO 23006KT 10SM BKN030 BKN034 28/22 A2992 RMK AO2 SLPNO
                 T02780222 PNO =

Support USWX by starting your Amazon purchase here.